createdAt,value
2023-03-27T00:01:22.332Z,6.50
2023-03-27T00:03:50.997Z,6.60
2023-03-27T00:06:19.950Z,6.50
2023-03-27T00:08:51.370Z,6.40
2023-03-27T00:11:22.034Z,6.40
2023-03-27T00:13:51.407Z,6.40
2023-03-27T00:16:24.275Z,6.40
2023-03-27T00:18:51.368Z,6.20
2023-03-27T00:21:18.422Z,6.40
2023-03-27T00:23:45.344Z,6.30
2023-03-27T00:26:12.717Z,6.20
2023-03-27T00:28:39.731Z,6.20
2023-03-27T00:31:11.665Z,6.20
2023-03-27T00:33:38.958Z,6.30
2023-03-27T00:36:06.181Z,5.90
2023-03-27T00:38:33.901Z,6.10
2023-03-27T00:41:01.129Z,6.30
2023-03-27T00:43:30.563Z,6.10
2023-03-27T00:46:05.335Z,6.30
2023-03-27T00:48:35.523Z,6.30
2023-03-27T00:51:03.805Z,6.30
2023-03-27T00:53:31.320Z,6.30
2023-03-27T00:56:03.050Z,6.30
2023-03-27T00:58:36.636Z,6.30
2023-03-27T01:01:03.695Z,6.10
2023-03-27T01:03:32.335Z,6.30
2023-03-27T01:06:02.165Z,6.10
2023-03-27T01:08:33.064Z,6.40
2023-03-27T01:11:12.564Z,6.30
2023-03-27T01:14:07.349Z,6.20
2023-03-27T01:16:54.460Z,6.30
2023-03-27T01:19:45.926Z,6.10
2023-03-27T01:22:24.700Z,6.10
2023-03-27T01:25:19.499Z,6.00
2023-03-27T01:28:14.185Z,6.00
2023-03-27T01:31:14.345Z,5.90
2023-03-27T01:34:08.588Z,6.10
2023-03-27T01:36:55.682Z,6.30
2023-03-27T01:39:35.822Z,6.10
2023-03-27T01:42:07.453Z,6.20
2023-03-27T01:45:01.860Z,6.10
2023-03-27T01:47:34.436Z,6.30
2023-03-27T01:50:10.679Z,6.10
2023-03-27T01:52:42.020Z,6.40
2023-03-27T01:55:19.090Z,6.30
2023-03-27T01:57:51.995Z,6.20
2023-03-27T02:00:22.533Z,6.50
2023-03-27T02:03:01.462Z,6.10
2023-03-27T02:05:40.667Z,6.30
2023-03-27T02:08:17.275Z,6.10
2023-03-27T02:10:54.152Z,6.40
2023-03-27T02:13:31.121Z,6.50
2023-03-27T02:16:01.118Z,6.50
2023-03-27T02:18:36.744Z,6.60
2023-03-27T02:21:04.149Z,6.40
2023-03-27T02:23:30.954Z,6.60
2023-03-27T02:25:58.033Z,6.50
2023-03-27T02:28:38.573Z,6.50
2023-03-27T02:31:32.900Z,6.70
2023-03-27T02:34:10.049Z,6.80
2023-03-27T02:36:54.896Z,6.70
2023-03-27T02:39:34.066Z,6.90
2023-03-27T02:42:11.785Z,6.70
2023-03-27T02:44:46.857Z,6.80
2023-03-27T02:47:32.073Z,6.90
2023-03-27T02:50:05.925Z,6.90
2023-03-27T02:52:46.691Z,6.80
2023-03-27T02:55:19.059Z,6.90
2023-03-27T02:57:52.199Z,6.60
2023-03-27T03:00:28.402Z,6.30
2023-03-27T03:03:10.025Z,6.50
2023-03-27T03:05:41.110Z,6.20
2023-03-27T03:08:10.225Z,6.20
2023-03-27T03:10:46.219Z,6.20
2023-03-27T03:13:13.242Z,6.10
2023-03-27T03:15:40.192Z,6.10
2023-03-27T03:18:07.702Z,6.00
2023-03-27T03:20:34.991Z,6.50
2023-03-27T03:23:02.444Z,6.30
2023-03-27T03:25:31.169Z,6.30
2023-03-27T03:28:00.817Z,6.40
2023-03-27T03:30:30.135Z,6.60
2023-03-27T03:32:57.259Z,6.60
2023-03-27T03:35:25.036Z,6.60
2023-03-27T03:37:57.823Z,6.50
2023-03-27T03:40:24.632Z,6.40
2023-03-27T03:42:52.931Z,6.50
2023-03-27T03:45:20.064Z,6.50
2023-03-27T03:47:47.055Z,6.70
2023-03-27T03:50:14.316Z,6.60
2023-03-27T03:52:41.647Z,6.70
2023-03-27T03:55:11.898Z,6.70
2023-03-27T03:57:38.912Z,6.90
2023-03-27T04:00:08.711Z,7.00
2023-03-27T04:02:38.324Z,6.80
2023-03-27T04:05:08.698Z,6.70
2023-03-27T04:07:37.285Z,6.60
2023-03-27T04:10:04.651Z,6.60
2023-03-27T04:12:31.485Z,6.80
2023-03-27T04:15:05.779Z,6.50
2023-03-27T04:17:33.491Z,6.60
2023-03-27T04:20:00.247Z,6.60
2023-03-27T04:22:27.027Z,6.40
2023-03-27T04:24:53.879Z,6.50
2023-03-27T04:27:23.902Z,6.50
2023-03-27T04:29:50.590Z,6.30
2023-03-27T04:32:19.219Z,6.60
2023-03-27T04:34:48.288Z,6.40
2023-03-27T04:37:15.228Z,6.50
2023-03-27T04:39:46.287Z,6.40
2023-03-27T04:42:16.829Z,6.30
2023-03-27T04:44:46.486Z,6.30
2023-03-27T04:47:13.304Z,6.10
2023-03-27T04:49:46.670Z,6.30
2023-03-27T04:52:14.307Z,6.10
2023-03-27T04:54:42.052Z,6.50
2023-03-27T04:57:10.045Z,6.30
2023-03-27T04:59:37.213Z,6.30
2023-03-27T05:02:05.565Z,6.40
2023-03-27T05:04:32.427Z,6.50
2023-03-27T05:07:00.656Z,6.40
2023-03-27T05:09:27.384Z,6.40
2023-03-27T05:11:54.086Z,6.40
2023-03-27T05:14:22.772Z,6.30
2023-03-27T05:16:50.687Z,6.30
2023-03-27T05:19:19.431Z,6.40
2023-03-27T05:21:46.962Z,6.20
2023-03-27T05:24:15.413Z,6.10
2023-03-27T05:26:43.275Z,6.10
2023-03-27T05:29:10.126Z,6.60
2023-03-27T05:31:37.357Z,6.20
2023-03-27T05:34:05.789Z,6.50
2023-03-27T05:36:32.633Z,6.40
2023-03-27T05:38:59.522Z,6.30
2023-03-27T05:41:26.496Z,6.30
2023-03-27T05:43:53.482Z,6.50
2023-03-27T05:46:20.985Z,6.50
2023-03-27T05:48:48.647Z,6.60
2023-03-27T05:51:15.948Z,6.70
2023-03-27T05:53:43.123Z,6.80
2023-03-27T05:56:10.469Z,6.70
2023-03-27T05:58:38.648Z,6.90
2023-03-27T06:01:05.972Z,7.00
2023-03-27T06:03:38.196Z,6.90
2023-03-27T06:06:12.633Z,6.80
2023-03-27T06:08:39.326Z,6.80
2023-03-27T06:11:13.489Z,6.80
2023-03-27T06:13:40.325Z,6.70
2023-03-27T06:16:07.789Z,6.70
2023-03-27T06:18:34.673Z,6.70
2023-03-27T06:21:01.838Z,6.40
2023-03-27T06:23:28.639Z,6.40
2023-03-27T06:25:55.807Z,6.70
2023-03-27T06:28:22.744Z,6.50
2023-03-27T06:30:50.297Z,6.20
2023-03-27T06:33:17.132Z,6.30
2023-03-27T06:35:53.455Z,6.40
2023-03-27T06:38:21.261Z,6.20
2023-03-27T06:40:48.124Z,6.20
2023-03-27T06:43:18.169Z,6.20
2023-03-27T06:45:46.645Z,6.30
2023-03-27T06:48:21.392Z,6.30
2023-03-27T06:50:50.976Z,5.90
2023-03-27T06:55:49.298Z,5.70
2023-03-27T06:58:18.529Z,6.00
2023-03-27T07:00:46.093Z,5.80
2023-03-27T07:03:13.405Z,5.80
2023-03-27T07:05:41.729Z,5.80
2023-03-27T07:10:45.835Z,6.20
2023-03-27T07:13:16.560Z,5.90
2023-03-27T07:15:43.355Z,6.10
2023-03-27T07:18:11.017Z,6.20
2023-03-27T07:20:38.034Z,6.10
2023-03-27T07:23:05.081Z,6.00
2023-03-27T07:25:37.244Z,6.20
2023-03-27T07:28:06.445Z,6.20
2023-03-27T07:30:34.193Z,6.30
2023-03-27T07:33:01.784Z,6.20
2023-03-27T07:35:28.842Z,6.10
2023-03-27T07:37:56.092Z,6.10
2023-03-27T07:40:37.022Z,6.10
2023-03-27T07:43:09.181Z,6.50
2023-03-27T07:45:36.754Z,6.50
2023-03-27T07:48:14.228Z,6.60
2023-03-27T07:50:40.967Z,6.40
2023-03-27T07:53:07.661Z,6.50
2023-03-27T07:55:37.676Z,6.80
2023-03-27T07:58:06.831Z,6.70
2023-03-27T08:00:35.562Z,6.80
2023-03-27T08:03:07.299Z,6.60
2023-03-27T08:05:35.034Z,6.80
2023-03-27T08:08:01.758Z,6.80
2023-03-27T08:10:28.577Z,6.80
2023-03-27T08:12:55.265Z,6.80
2023-03-27T08:15:25.114Z,6.70
2023-03-27T08:17:54.874Z,6.80
2023-03-27T08:20:23.889Z,6.80
2023-03-27T08:22:52.571Z,6.80
2023-03-27T08:25:20.010Z,6.80
2023-03-27T08:27:46.739Z,7.10
2023-03-27T08:30:16.648Z,6.90
2023-03-27T08:32:44.637Z,6.90
2023-03-27T08:35:12.213Z,7.30
2023-03-27T08:37:39.618Z,7.20
2023-03-27T08:40:13.497Z,7.30
2023-03-27T08:42:42.651Z,7.30
2023-03-27T08:45:14.726Z,7.00
2023-03-27T08:47:47.346Z,7.10
2023-03-27T08:50:38.370Z,7.40
2023-03-27T08:53:11.413Z,7.10
2023-03-27T08:55:44.535Z,7.20
2023-03-27T08:58:19.953Z,7.30
2023-03-27T09:00:59.683Z,7.20
2023-03-27T09:03:43.642Z,7.20
2023-03-27T09:06:39.598Z,7.10
2023-03-27T09:09:34.268Z,7.30
2023-03-27T09:12:29.642Z,7.50
2023-03-27T09:15:04.999Z,7.50
2023-03-27T09:17:55.435Z,7.40
2023-03-27T09:20:32.212Z,7.30
2023-03-27T09:23:16.104Z,7.10
2023-03-27T09:25:51.433Z,7.10
2023-03-27T09:28:23.569Z,7.40
2023-03-27T09:30:50.488Z,7.40
2023-03-27T09:33:17.919Z,7.60
2023-03-27T09:35:45.697Z,7.60
2023-03-27T09:38:54.016Z,7.50
2023-03-27T09:41:22.973Z,7.50
2023-03-27T09:44:01.034Z,7.90
2023-03-27T09:46:29.384Z,7.70
2023-03-27T09:49:17.350Z,7.50
2023-03-27T09:51:50.144Z,7.90
2023-03-27T09:54:19.618Z,8.00
2023-03-27T09:57:06.353Z,7.80
2023-03-27T09:59:40.493Z,7.90
2023-03-27T10:02:26.041Z,7.80
2023-03-27T10:05:16.917Z,8.00
2023-03-27T10:07:44.420Z,8.30
2023-03-27T10:10:15.667Z,7.90
2023-03-27T10:12:43.616Z,7.70
2023-03-27T10:15:32.701Z,8.00
2023-03-27T10:18:00.946Z,8.10
2023-03-27T10:20:27.875Z,8.20
2023-03-27T10:23:02.382Z,8.30
2023-03-27T10:25:30.674Z,8.10
2023-03-27T10:28:45.011Z,8.20
2023-03-27T10:31:34.999Z,7.90
2023-03-27T10:34:03.668Z,7.90
2023-03-27T10:36:36.613Z,8.20
2023-03-27T10:39:27.788Z,8.00
2023-03-27T10:41:54.753Z,8.10
2023-03-27T10:44:25.835Z,8.40
2023-03-27T10:46:53.554Z,8.50
2023-03-27T10:49:32.398Z,8.40
2023-03-27T10:52:23.192Z,8.50
2023-03-27T10:55:22.146Z,8.80
2023-03-27T10:57:54.451Z,8.70
2023-03-27T11:00:22.608Z,8.70
2023-03-27T11:02:53.684Z,8.50
2023-03-27T11:05:31.605Z,8.40
2023-03-27T11:08:25.089Z,8.40
2023-03-27T11:10:55.642Z,8.30
2023-03-27T11:13:33.953Z,8.60
2023-03-27T11:16:18.639Z,8.50
2023-03-27T11:19:04.288Z,8.80
2023-03-27T11:21:52.610Z,8.80
2023-03-27T11:24:44.272Z,8.80
2023-03-27T11:27:28.225Z,8.60
2023-03-27T11:30:16.236Z,8.40
2023-03-27T11:33:28.159Z,8.80
2023-03-27T11:36:27.202Z,8.70
2023-03-27T11:39:22.679Z,8.90
2023-03-27T11:41:56.143Z,9.30
2023-03-27T11:44:24.806Z,8.80
2023-03-27T11:47:09.703Z,9.10
2023-03-27T11:49:54.364Z,9.00
2023-03-27T11:52:29.564Z,9.20
2023-03-27T11:55:23.915Z,9.10
2023-03-27T11:58:07.464Z,8.90
2023-03-27T12:01:07.226Z,8.20
2023-03-27T12:03:52.877Z,7.50
2023-03-27T12:06:46.087Z,7.30
2023-03-27T12:09:28.186Z,7.20
2023-03-27T12:12:16.667Z,7.30
2023-03-27T12:15:06.174Z,7.40
2023-03-27T12:17:42.392Z,7.40
2023-03-27T12:20:28.628Z,7.70
2023-03-27T12:23:16.840Z,7.60
2023-03-27T12:25:52.634Z,7.60
2023-03-27T12:28:50.038Z,7.90
2023-03-27T12:32:12.409Z,7.90
2023-03-27T12:35:00.714Z,8.00
2023-03-27T12:37:40.393Z,8.40
2023-03-27T12:40:41.074Z,8.40
2023-03-27T12:43:19.936Z,8.80
2023-03-27T12:46:16.307Z,8.60
2023-03-27T12:48:58.583Z,8.60
2023-03-27T12:51:43.683Z,8.60
2023-03-27T12:54:31.900Z,8.90
2023-03-27T12:57:15.849Z,8.90
2023-03-27T13:00:10.477Z,8.90
2023-03-27T13:03:23.200Z,9.10
2023-03-27T13:06:06.988Z,8.80
2023-03-27T13:08:47.606Z,8.90
2023-03-27T13:11:38.600Z,8.60
2023-03-27T13:14:33.113Z,8.70
2023-03-27T13:17:29.277Z,8.00
2023-03-27T13:20:09.921Z,8.10
2023-03-27T13:23:30.997Z,7.60
2023-03-27T13:26:07.856Z,7.70
2023-03-27T13:28:39.444Z,7.60
2023-03-27T13:31:11.182Z,7.70
2023-03-27T13:33:47.604Z,7.70
2023-03-27T13:36:20.746Z,7.50
2023-03-27T13:38:57.073Z,7.60
2023-03-27T13:41:49.816Z,7.30
2023-03-27T13:44:35.426Z,7.30
2023-03-27T13:47:21.068Z,7.50
2023-03-27T13:50:25.424Z,7.40
2023-03-27T13:53:32.862Z,7.50
2023-03-27T13:56:09.576Z,7.60
2023-03-27T13:59:07.444Z,7.60
2023-03-27T14:01:53.241Z,7.60
2023-03-27T14:04:42.024Z,7.90
2023-03-27T14:07:36.406Z,8.10
2023-03-27T14:10:18.980Z,8.20
2023-03-27T14:13:07.516Z,8.60
2023-03-27T14:16:04.018Z,8.40
2023-03-27T14:19:21.981Z,8.30
2023-03-27T14:22:07.179Z,8.60
2023-03-27T14:24:44.327Z,8.80
2023-03-27T14:27:15.959Z,8.50
2023-03-27T14:29:45.116Z,8.50
2023-03-27T14:32:17.971Z,8.60
2023-03-27T14:34:54.697Z,8.80
2023-03-27T14:37:36.115Z,9.00
2023-03-27T14:40:19.057Z,9.00
2023-03-27T14:42:52.629Z,8.70
2023-03-27T14:45:27.631Z,9.00
2023-03-27T14:48:09.503Z,8.90
2023-03-27T14:50:38.430Z,9.30
2023-03-27T14:53:10.921Z,9.20
2023-03-27T14:55:40.395Z,9.10
2023-03-27T14:58:13.552Z,9.30
2023-03-27T15:00:41.493Z,9.30
2023-03-27T15:03:16.350Z,9.40
2023-03-27T15:06:04.606Z,9.30
2023-03-27T15:08:38.826Z,9.80
2023-03-27T15:11:17.268Z,9.70
2023-03-27T15:13:48.038Z,9.40
2023-03-27T15:16:24.747Z,9.50
2023-03-27T15:19:12.562Z,9.40
2023-03-27T15:22:02.386Z,9.60
2023-03-27T15:24:46.294Z,9.10
2023-03-27T15:27:21.998Z,8.90
2023-03-27T15:29:59.499Z,8.90
2023-03-27T15:32:42.419Z,8.70
2023-03-27T15:35:18.113Z,8.60
2023-03-27T15:37:45.336Z,8.80
2023-03-27T15:40:15.465Z,8.50
2023-03-27T15:42:46.956Z,8.70
2023-03-27T15:45:16.687Z,9.00
2023-03-27T15:47:43.720Z,8.80
2023-03-27T15:50:22.649Z,8.30
2023-03-27T15:52:54.965Z,8.60
2023-03-27T15:55:44.073Z,8.60
2023-03-27T15:58:23.762Z,8.70
2023-03-27T16:00:53.115Z,8.50
2023-03-27T16:03:23.154Z,8.70
2023-03-27T16:05:52.640Z,8.70
2023-03-27T16:08:49.000Z,8.70
2023-03-27T16:11:33.064Z,8.40
2023-03-27T16:14:00.530Z,8.50
2023-03-27T16:16:33.868Z,8.30
2023-03-27T16:19:12.171Z,8.60
2023-03-27T16:21:52.769Z,8.50
2023-03-27T16:24:19.474Z,8.60
2023-03-27T16:26:46.595Z,8.50
2023-03-27T16:29:14.918Z,8.50
2023-03-27T16:31:42.073Z,8.50
2023-03-27T16:34:22.441Z,8.40
2023-03-27T16:36:50.632Z,8.60
2023-03-27T16:39:17.298Z,8.40
2023-03-27T16:41:44.095Z,8.40
2023-03-27T16:44:10.850Z,8.40
2023-03-27T16:46:37.698Z,8.30
2023-03-27T16:49:04.474Z,8.00
2023-03-27T16:51:31.488Z,8.00
2023-03-27T16:53:58.284Z,8.00
2023-03-27T16:56:25.002Z,8.00
2023-03-27T16:58:51.727Z,8.10
2023-03-27T17:01:18.504Z,7.70
2023-03-27T17:03:45.653Z,7.80
2023-03-27T17:06:12.815Z,8.00
2023-03-27T17:08:39.631Z,8.00
2023-03-27T17:11:12.389Z,8.00
2023-03-27T17:13:43.138Z,7.90
2023-03-27T17:16:10.863Z,7.70
2023-03-27T17:18:37.767Z,8.00
2023-03-27T17:21:04.979Z,8.10
2023-03-27T17:23:31.917Z,7.90
2023-03-27T17:26:02.300Z,8.00
2023-03-27T17:28:29.903Z,8.10
2023-03-27T17:31:04.679Z,7.70
2023-03-27T17:33:32.760Z,7.80
2023-03-27T17:35:59.656Z,8.00
2023-03-27T17:38:26.653Z,8.00
2023-03-27T17:40:53.400Z,8.50
2023-03-27T17:43:20.242Z,8.00
2023-03-27T17:45:47.897Z,8.00
2023-03-27T17:48:14.710Z,8.00
2023-03-27T17:50:41.550Z,8.00
2023-03-27T17:53:08.301Z,8.00
2023-03-27T17:55:37.783Z,7.90
2023-03-27T17:58:09.386Z,7.70
2023-03-27T18:00:38.136Z,7.70
2023-03-27T18:03:06.622Z,7.70
2023-03-27T18:05:38.692Z,7.80
2023-03-27T18:08:06.783Z,7.80
2023-03-27T18:10:35.337Z,7.70
2023-03-27T18:13:02.670Z,7.90
2023-03-27T18:15:29.630Z,7.90
2023-03-27T18:17:56.466Z,8.00
2023-03-27T18:20:23.263Z,7.90
2023-03-27T18:22:50.118Z,8.00
2023-03-27T18:25:17.039Z,7.80
2023-03-27T18:27:44.915Z,7.70
2023-03-27T18:30:15.029Z,8.00
2023-03-27T18:32:44.037Z,7.70
2023-03-27T18:35:14.934Z,7.80
2023-03-27T18:37:43.109Z,7.80
2023-03-27T18:40:12.320Z,7.80
2023-03-27T18:42:40.427Z,7.60
2023-03-27T18:45:08.549Z,7.70
2023-03-27T18:47:36.501Z,7.70
2023-03-27T18:50:05.129Z,7.70
2023-03-27T18:52:31.982Z,7.60
2023-03-27T18:54:58.889Z,7.70
2023-03-27T18:57:25.787Z,7.70
2023-03-27T18:59:52.685Z,7.70
2023-03-27T19:02:19.487Z,7.70
2023-03-27T19:04:47.866Z,7.70
2023-03-27T19:07:16.340Z,7.60
2023-03-27T19:09:43.277Z,7.60
2023-03-27T19:12:11.063Z,7.70
2023-03-27T19:14:37.817Z,7.90
2023-03-27T19:17:04.931Z,7.90
2023-03-27T19:19:32.120Z,8.00
2023-03-27T19:21:59.169Z,8.10
2023-03-27T19:24:25.930Z,8.20
2023-03-27T19:26:52.942Z,8.30
2023-03-27T19:29:19.841Z,8.30
2023-03-27T19:31:46.823Z,8.40
2023-03-27T19:34:13.698Z,8.20
2023-03-27T19:36:40.475Z,8.00
2023-03-27T19:39:07.178Z,8.00
2023-03-27T19:41:33.909Z,8.30
2023-03-27T19:44:00.778Z,8.10
2023-03-27T19:46:29.190Z,8.10
2023-03-27T19:48:56.251Z,8.10
2023-03-27T19:51:23.095Z,8.30
2023-03-27T19:53:49.837Z,7.80
2023-03-27T19:56:16.984Z,7.70
2023-03-27T19:58:43.830Z,7.50
2023-03-27T20:01:11.268Z,7.50
2023-03-27T20:03:39.869Z,7.60
2023-03-27T20:06:14.270Z,7.60
2023-03-27T20:08:42.409Z,7.80
2023-03-27T20:11:09.191Z,7.60
2023-03-27T20:13:49.084Z,7.20
2023-03-27T20:16:24.352Z,7.30
2023-03-27T20:18:55.314Z,7.30
2023-03-27T20:21:25.594Z,7.20
2023-03-27T20:23:53.888Z,7.30
2023-03-27T20:26:22.451Z,7.20
2023-03-27T20:28:50.740Z,7.20
2023-03-27T20:31:18.848Z,7.10
2023-03-27T20:33:46.656Z,7.20
2023-03-27T20:36:14.662Z,6.90
2023-03-27T20:38:41.552Z,6.90
2023-03-27T20:41:08.681Z,6.60
2023-03-27T20:43:35.713Z,6.60
2023-03-27T20:46:04.501Z,6.60
2023-03-27T20:48:41.595Z,6.90
2023-03-27T20:51:17.647Z,6.60
2023-03-27T20:53:46.019Z,6.90
2023-03-27T20:56:14.243Z,6.90
2023-03-27T20:58:41.905Z,6.60
2023-03-27T21:01:10.466Z,6.50
2023-03-27T21:03:41.847Z,6.70
2023-03-27T21:06:11.536Z,6.60
2023-03-27T21:08:39.083Z,6.80
2023-03-27T21:11:06.065Z,6.50
2023-03-27T21:13:32.855Z,7.00
2023-03-27T21:16:00.216Z,7.00
2023-03-27T21:18:27.321Z,6.80
2023-03-27T21:20:54.456Z,6.90
2023-03-27T21:23:22.002Z,6.90
2023-03-27T21:25:51.023Z,7.00
2023-03-27T21:28:18.255Z,7.20
2023-03-27T21:30:48.275Z,7.10
2023-03-27T21:33:16.201Z,7.30
2023-03-27T21:35:46.169Z,7.10
2023-03-27T21:38:15.021Z,7.20
2023-03-27T21:40:41.978Z,7.30
2023-03-27T21:43:09.127Z,7.60
2023-03-27T21:45:36.749Z,7.40
2023-03-27T21:48:03.985Z,7.40
2023-03-27T21:50:31.007Z,7.20
2023-03-27T21:52:57.928Z,7.30
2023-03-27T21:55:24.722Z,7.40
2023-03-27T21:57:52.209Z,7.40
2023-03-27T22:00:19.651Z,7.50
2023-03-27T22:02:46.510Z,7.50
2023-03-27T22:05:13.326Z,7.70
2023-03-27T22:07:40.477Z,7.40
2023-03-27T22:10:07.989Z,7.70
2023-03-27T22:12:36.599Z,7.40
2023-03-27T22:15:04.766Z,7.50
2023-03-27T22:17:31.748Z,7.50
2023-03-27T22:19:59.153Z,7.50
2023-03-27T22:22:26.556Z,7.50
2023-03-27T22:24:53.342Z,7.50
2023-03-27T22:27:20.542Z,7.40
2023-03-27T22:29:48.432Z,7.20
2023-03-27T22:32:15.279Z,7.10
2023-03-27T22:34:41.940Z,7.20
2023-03-27T22:37:08.776Z,7.10
2023-03-27T22:39:35.493Z,7.10
2023-03-27T22:42:02.275Z,7.10
2023-03-27T22:44:31.102Z,7.10
2023-03-27T22:46:59.727Z,7.10
2023-03-27T22:49:26.854Z,7.20
2023-03-27T22:51:53.572Z,7.30
2023-03-27T22:54:20.613Z,7.30
2023-03-27T22:56:47.881Z,7.40
2023-03-27T22:59:15.643Z,7.30
2023-03-27T23:01:42.396Z,7.30
2023-03-27T23:04:09.433Z,7.30
2023-03-27T23:06:36.172Z,7.30
2023-03-27T23:09:03.422Z,7.30
2023-03-27T23:11:30.430Z,7.30
2023-03-27T23:13:57.179Z,7.30
2023-03-27T23:16:24.088Z,7.30
2023-03-27T23:18:50.955Z,7.30
2023-03-27T23:21:18.015Z,7.20
2023-03-27T23:23:45.272Z,7.40
2023-03-27T23:26:12.801Z,7.50
2023-03-27T23:28:41.924Z,7.50
2023-03-27T23:31:12.996Z,7.50
2023-03-27T23:33:42.716Z,7.30
2023-03-27T23:36:11.270Z,7.50
2023-03-27T23:38:38.823Z,7.40
2023-03-27T23:41:07.226Z,7.40
2023-03-27T23:43:34.854Z,7.20
2023-03-27T23:46:03.128Z,7.10
2023-03-27T23:48:30.797Z,7.00
2023-03-27T23:50:58.120Z,7.00
2023-03-27T23:53:26.764Z,7.10
2023-03-27T23:55:56.063Z,7.00
2023-03-27T23:58:24.038Z,7.20
